createdAt,value
2022-08-25T00:01:37.577Z,100593.95
2022-08-25T00:03:45.229Z,100592.14
2022-08-25T00:05:51.874Z,100594.86
2022-08-25T00:07:56.513Z,100597.53
2022-08-25T00:10:01.184Z,100593.09
2022-08-25T00:12:05.753Z,100593.53
2022-08-25T00:14:10.276Z,100594.24
2022-08-25T00:16:15.054Z,100591.2
2022-08-25T00:18:21.229Z,100595.09
2022-08-25T00:20:25.776Z,100591.26
2022-08-25T00:22:30.363Z,100589.23
2022-08-25T00:24:34.909Z,100592.7
2022-08-25T00:26:39.434Z,100587.19
2022-08-25T00:28:44.037Z,100584.82
2022-08-25T00:30:48.756Z,100585.75
2022-08-25T00:32:58.316Z,100586.64
2022-08-25T00:35:02.936Z,100582.14
2022-08-25T00:37:07.658Z,100579.44
2022-08-25T00:39:12.279Z,100581.69
2022-08-25T00:41:19.562Z,100578.75
2022-08-25T00:43:24.054Z,100583.23
2022-08-25T00:45:28.601Z,100583.66
2022-08-25T00:47:33.192Z,100580.39
2022-08-25T00:49:37.672Z,100583.09
2022-08-25T00:51:42.563Z,100583
2022-08-25T00:53:48.083Z,100584.05
2022-08-25T00:55:52.624Z,100584.13
2022-08-25T00:57:58.114Z,100589.09
2022-08-25T01:00:03.512Z,100589.14
2022-08-25T01:02:13.841Z,100587.61
2022-08-25T01:04:18.898Z,100591.17
2022-08-25T01:06:23.378Z,100586.32
2022-08-25T01:08:30.212Z,100590.42
2022-08-25T01:10:36.750Z,100590.64
2022-08-25T01:12:41.475Z,100586.08
2022-08-25T01:14:46.076Z,100588.29
2022-08-25T01:16:54.811Z,100588.05
2022-08-25T01:18:59.433Z,100594.73
2022-08-25T01:21:04.053Z,100591.89
2022-08-25T01:23:08.573Z,100591.75
2022-08-25T01:25:13.201Z,100595.05
2022-08-25T01:27:17.711Z,100593.09
2022-08-25T01:29:22.232Z,100590.27
2022-08-25T01:31:26.990Z,100590.28
2022-08-25T01:33:31.678Z,100589.88
2022-08-25T01:35:36.894Z,100585.72
2022-08-25T01:37:41.400Z,100584.52
2022-08-25T01:39:46.106Z,100584.22
2022-08-25T01:41:52.618Z,100585.48
2022-08-25T01:43:57.245Z,100586.89
2022-08-25T01:46:01.900Z,100588.69
2022-08-25T01:48:06.934Z,100587.81
2022-08-25T01:50:11.619Z,100586.79
2022-08-25T01:52:16.240Z,100584.45
2022-08-25T01:54:20.860Z,100585.88
2022-08-25T01:56:25.380Z,100588
2022-08-25T01:58:29.998Z,100592.7
2022-08-25T02:00:34.620Z,100588.58
2022-08-25T02:02:44.014Z,100588.66
2022-08-25T02:04:48.684Z,100589.86
2022-08-25T02:06:55.444Z,100590.39
2022-08-25T02:08:59.967Z,100585.25
2022-08-25T02:11:04.581Z,100586.08
2022-08-25T02:13:09.443Z,100582.78
2022-08-25T02:15:14.033Z,100581.06
2022-08-25T02:17:18.651Z,100579.8
2022-08-25T02:19:23.283Z,100580.59
2022-08-25T02:21:27.897Z,100577.3
2022-08-25T02:23:32.484Z,100573.33
2022-08-25T02:25:37.145Z,100572.5
2022-08-25T02:27:41.737Z,100572.75
2022-08-25T02:29:46.258Z,100571.71
2022-08-25T02:31:50.776Z,100567.53
2022-08-25T02:33:55.428Z,100560.83
2022-08-25T02:36:00.144Z,100557.38
2022-08-25T02:38:05.105Z,100558.97
2022-08-25T02:40:10.163Z,100560.44
2022-08-25T02:42:14.903Z,100560.72
2022-08-25T02:44:19.447Z,100559.73
2022-08-25T02:46:24.188Z,100554.36
2022-08-25T02:48:28.996Z,100552.94
2022-08-25T02:50:33.522Z,100554.22
2022-08-25T02:52:38.137Z,100555.66
2022-08-25T02:54:42.738Z,100554.78
2022-08-25T02:56:47.377Z,100548.56
2022-08-25T02:58:51.999Z,100552.81
2022-08-25T03:00:57.336Z,100552.49
2022-08-25T03:03:02.160Z,100543.55
2022-08-25T03:05:06.801Z,100544.89
2022-08-25T03:07:13.659Z,100547.73
2022-08-25T03:09:21.759Z,100549.58
2022-08-25T03:11:26.258Z,100549.23
2022-08-25T03:13:30.795Z,100551.45
2022-08-25T03:15:35.417Z,100551.28
2022-08-25T03:17:44.432Z,100551.67
2022-08-25T03:19:50.597Z,100546.2
2022-08-25T03:21:55.221Z,100549.55
2022-08-25T03:23:59.839Z,100544.75
2022-08-25T03:26:04.362Z,100542.08
2022-08-25T03:28:08.881Z,100541.82
2022-08-25T03:30:13.501Z,100540.28
2022-08-25T03:32:18.020Z,100541.91
2022-08-25T03:34:22.641Z,100545.24
2022-08-25T03:36:27.365Z,100545.69
2022-08-25T03:38:31.841Z,100546.05
2022-08-25T03:40:36.379Z,100546.27
2022-08-25T03:42:45.792Z,100546.98
2022-08-25T03:44:50.353Z,100546.58
2022-08-25T03:46:54.933Z,100550.16
2022-08-25T03:48:59.496Z,100554.58
2022-08-25T03:51:04.115Z,100557.38
2022-08-25T03:53:11.912Z,100562.92
2022-08-25T03:55:17.350Z,100560.59
2022-08-25T03:57:21.973Z,100564.05
2022-08-25T03:59:26.593Z,100565.22
2022-08-25T04:01:31.368Z,100565.32
2022-08-25T04:03:36.808Z,100566.25
2022-08-25T04:05:42.198Z,100563.36
2022-08-25T04:07:46.714Z,100560.45
2022-08-25T04:09:51.326Z,100556.08
2022-08-25T04:11:55.957Z,100558.31
2022-08-25T04:14:00.577Z,100554.09
2022-08-25T04:16:05.494Z,100556.81
2022-08-25T04:18:10.229Z,100553.98
2022-08-25T04:20:15.399Z,100552.98
2022-08-25T04:22:19.985Z,100554.39
2022-08-25T04:24:24.608Z,100556.22
2022-08-25T04:26:29.227Z,100556.59
2022-08-25T04:28:33.821Z,100562.83
2022-08-25T04:30:39.801Z,100563.34
2022-08-25T04:32:44.319Z,100562.66
2022-08-25T04:34:49.185Z,100555.45
2022-08-25T04:36:53.972Z,100564.75
2022-08-25T04:38:58.591Z,100565.2
2022-08-25T04:41:03.109Z,100556.38
2022-08-25T04:43:07.733Z,100560.59
2022-08-25T04:45:12.354Z,100565.09
2022-08-25T04:47:17.079Z,100560.28
2022-08-25T04:49:21.697Z,100563.59
2022-08-25T04:51:26.297Z,100563.98
2022-08-25T04:53:30.917Z,100564.66
2022-08-25T04:55:35.441Z,100561.55
2022-08-25T04:57:39.975Z,100556.45
2022-08-25T04:59:44.599Z,100558.09
2022-08-25T05:01:53.141Z,100562.59
2022-08-25T05:03:57.999Z,100558.89
2022-08-25T05:06:02.630Z,100561.84
2022-08-25T05:08:07.479Z,100561.78
2022-08-25T05:10:13.028Z,100564.13
2022-08-25T05:12:18.161Z,100563.33
2022-08-25T05:14:27.289Z,100562
2022-08-25T05:16:33.051Z,100560.16
2022-08-25T05:18:37.845Z,100554.63
2022-08-25T05:20:42.487Z,100554.36
2022-08-25T05:22:47.106Z,100553.71
2022-08-25T05:24:51.728Z,100551.23
2022-08-25T05:26:56.247Z,100548.2
2022-08-25T05:29:00.767Z,100545.89
2022-08-25T05:31:06.963Z,100549.75
2022-08-25T05:33:12.433Z,100547.39
2022-08-25T05:35:16.935Z,100546.23
2022-08-25T05:37:21.503Z,100546.81
2022-08-25T05:39:28.035Z,100544.09
2022-08-25T05:41:32.587Z,100548.16
2022-08-25T05:43:37.187Z,100546.21
2022-08-25T05:45:41.749Z,100546.66
2022-08-25T05:47:46.450Z,100546.91
2022-08-25T05:49:51.049Z,100550.27
2022-08-25T05:51:55.561Z,100547.38
2022-08-25T05:54:00.109Z,100549.25
2022-08-25T05:56:04.727Z,100549.89
2022-08-25T05:58:11.759Z,100549
2022-08-25T06:00:20.217Z,100544.28
2022-08-25T06:02:24.695Z,100541.46
2022-08-25T06:04:29.255Z,100547.44
2022-08-25T06:06:33.876Z,100545.42
2022-08-25T06:08:41.261Z,100546.72
2022-08-25T06:10:45.779Z,100548.09
2022-08-25T06:12:50.300Z,100544.97
2022-08-25T06:14:56.463Z,100543.58
2022-08-25T06:17:01.069Z,100540.52
2022-08-25T06:19:05.663Z,100542.23
2022-08-25T06:21:10.199Z,100545.17
2022-08-25T06:23:14.745Z,100547.98
2022-08-25T06:25:19.357Z,100554.65
2022-08-25T06:27:23.955Z,100554.58
2022-08-25T06:29:28.502Z,100556.16
2022-08-25T06:31:33.270Z,100559.15
2022-08-25T06:33:37.948Z,100558.81
2022-08-25T06:35:42.435Z,100558.38
2022-08-25T06:37:46.982Z,100565.28
2022-08-25T06:39:51.905Z,100568.69
2022-08-25T06:41:56.528Z,100567.22
2022-08-25T06:44:06.613Z,100566.88
2022-08-25T06:46:11.202Z,100573.16
2022-08-25T06:48:15.827Z,100572.16
2022-08-25T06:50:20.441Z,100572.1
2022-08-25T06:52:30.604Z,100578.72
2022-08-25T06:54:35.214Z,100580.02
2022-08-25T06:56:39.938Z,100580.09
2022-08-25T06:58:44.454Z,100580.46
2022-08-25T07:00:49.176Z,100580.25
2022-08-25T07:02:54.571Z,100578.41
2022-08-25T07:04:59.141Z,100579.67
2022-08-25T07:07:03.761Z,100581.48
2022-08-25T07:09:08.259Z,100582.98
2022-08-25T07:11:17.815Z,100578.5
2022-08-25T07:13:22.317Z,100581.17
2022-08-25T07:15:26.851Z,100585.86
2022-08-25T07:17:31.372Z,100587.03
2022-08-25T07:19:35.993Z,100584.6
2022-08-25T07:21:40.613Z,100584.95
2022-08-25T07:23:45.247Z,100586.88
2022-08-25T07:25:49.698Z,100584.13
2022-08-25T07:27:59.588Z,100585.53
2022-08-25T07:30:05.551Z,100588.69
2022-08-25T07:32:11.913Z,100586.13
2022-08-25T07:34:17.659Z,100583.89
2022-08-25T07:36:23.444Z,100585.89
2022-08-25T07:38:28.105Z,100587.27
2022-08-25T07:40:33.794Z,100589.78
2022-08-25T07:42:38.763Z,100587.66
2022-08-25T07:44:44.552Z,100589.63
2022-08-25T07:46:51.433Z,100590.11
2022-08-25T07:48:57.273Z,100586.44
2022-08-25T07:51:07.493Z,100586.88
2022-08-25T07:53:13.626Z,100583.98
2022-08-25T07:55:19.129Z,100582.22
2022-08-25T07:57:23.736Z,100579.72
2022-08-25T07:59:28.378Z,100578.13
2022-08-25T08:01:34.552Z,100578.21
2022-08-25T08:03:52.215Z,100582.2
2022-08-25T08:05:56.958Z,100583.13
2022-08-25T08:08:01.842Z,100583.21
2022-08-25T08:10:53.756Z,100584.83
2022-08-25T08:13:09.368Z,100589.17
2022-08-25T08:15:14.347Z,100587.66
2022-08-25T08:17:18.947Z,100589.09
2022-08-25T08:19:24.482Z,100590.98
2022-08-25T08:21:30.943Z,100589.76
2022-08-25T08:23:35.589Z,100589.33
2022-08-25T08:25:40.217Z,100589.06
2022-08-25T08:27:44.857Z,100589.75
2022-08-25T08:29:49.569Z,100587.28
2022-08-25T08:31:54.448Z,100585.36
2022-08-25T08:34:00.138Z,100587.12
2022-08-25T08:36:06.459Z,100590.64
2022-08-25T08:38:22.006Z,100594.64
2022-08-25T08:40:31.924Z,100590.38
2022-08-25T08:42:37.239Z,100585.78
2022-08-25T08:44:41.792Z,100585.64
2022-08-25T08:46:46.550Z,100585.44
2022-08-25T08:48:51.436Z,100581.63
2022-08-25T08:50:56.599Z,100577.45
2022-08-25T08:53:02.521Z,100578.91
2022-08-25T08:55:11.855Z,100580.53
2022-08-25T08:57:18.431Z,100575.08
2022-08-25T08:59:30.828Z,100576.91
2022-08-25T09:01:35.740Z,100575.28
2022-08-25T09:03:40.999Z,100569.36
2022-08-25T09:05:48.383Z,100569.42
2022-08-25T09:08:06.387Z,100573.98
2022-08-25T09:10:12.011Z,100574.02
2022-08-25T09:12:19.176Z,100571.63
2022-08-25T09:14:31.544Z,100574.19
2022-08-25T09:16:36.629Z,100571.86
2022-08-25T09:18:52.699Z,100572.19
2022-08-25T09:20:57.488Z,100563.53
2022-08-25T09:23:04.575Z,100567.38
2022-08-25T09:25:10.042Z,100563.84
2022-08-25T09:27:15.094Z,100561.19
2022-08-25T09:29:19.642Z,100558.23
2022-08-25T09:31:30.357Z,100558.64
2022-08-25T09:33:36.864Z,100560.37
2022-08-25T09:35:41.518Z,100557.33
2022-08-25T09:37:46.139Z,100559.53
2022-08-25T09:39:52.233Z,100560.13
2022-08-25T09:41:57.011Z,100556.08
2022-08-25T09:44:04.404Z,100558.79
2022-08-25T09:46:10.923Z,100554.55
2022-08-25T09:48:15.848Z,100548.79
2022-08-25T09:50:20.669Z,100549.83
2022-08-25T09:52:26.578Z,100545.86
2022-08-25T09:54:47.870Z,100544.88
2022-08-25T09:56:52.410Z,100542.49
2022-08-25T09:59:03.480Z,100539.61
2022-08-25T10:01:22.372Z,100537.06
2022-08-25T10:03:28.860Z,100535.41
2022-08-25T10:05:40.182Z,100539.52
2022-08-25T10:07:44.799Z,100534.74
2022-08-25T10:09:56.491Z,100534.69
2022-08-25T10:12:01.121Z,100530.11
2022-08-25T10:14:07.073Z,100525.44
2022-08-25T10:16:24.140Z,100522
2022-08-25T10:18:33.305Z,100520.48
2022-08-25T10:20:45.517Z,100514.9
2022-08-25T10:22:51.614Z,100508.61
2022-08-25T10:24:57.044Z,100509.2
2022-08-25T10:27:01.929Z,100506.09
2022-08-25T10:29:06.564Z,100499.46
2022-08-25T10:31:14.174Z,100501.16
2022-08-25T10:33:19.637Z,100502.22
2022-08-25T10:35:25.058Z,100506.11
2022-08-25T10:37:34.200Z,100501.73
2022-08-25T10:39:41.851Z,100501.23
2022-08-25T10:41:46.980Z,100501.45
2022-08-25T10:43:54.881Z,100498.77
2022-08-25T10:46:03.455Z,100495.29
2022-08-25T10:48:08.631Z,100498.09
2022-08-25T10:50:13.866Z,100496.14
2022-08-25T10:52:19.556Z,100489.54
2022-08-25T10:54:24.497Z,100487.19
2022-08-25T10:56:29.671Z,100483.79
2022-08-25T10:58:35.939Z,100479.73
2022-08-25T11:00:48.403Z,100478.5
2022-08-25T11:02:53.154Z,100473.89
2022-08-25T11:04:58.991Z,100464.92
2022-08-25T11:07:04.967Z,100464.24
2022-08-25T11:09:11.381Z,100460.8
2022-08-25T11:11:16.051Z,100452.66
2022-08-25T11:13:20.885Z,100450.2
2022-08-25T11:15:25.606Z,100449.05
2022-08-25T11:17:33.154Z,100440.17
2022-08-25T11:19:40.274Z,100437.55
2022-08-25T11:21:47.558Z,100435.55
2022-08-25T11:23:53.915Z,100437.63
2022-08-25T11:25:58.556Z,100432.91
2022-08-25T11:28:03.889Z,100428.86
2022-08-25T11:30:09.289Z,100431.58
2022-08-25T11:32:14.142Z,100431.45
2022-08-25T11:34:20.816Z,100423.3
2022-08-25T11:36:30.513Z,100423.86
2022-08-25T11:38:35.288Z,100416.32
2022-08-25T11:40:41.650Z,100418.13
2022-08-25T11:42:46.364Z,100417.02
2022-08-25T11:44:55.192Z,100419.76
2022-08-25T11:46:59.810Z,100420.48
2022-08-25T11:49:04.557Z,100414.97
2022-08-25T11:51:10.940Z,100415.45
2022-08-25T11:53:15.519Z,100416.31
2022-08-25T11:55:23.866Z,100416.4
2022-08-25T11:57:28.487Z,100421.13
2022-08-25T11:59:36.338Z,100418.71
2022-08-25T12:01:41.346Z,100420.91
2022-08-25T12:03:46.306Z,100413.41
2022-08-25T12:05:54.373Z,100412
2022-08-25T12:07:59.901Z,100413.37
2022-08-25T12:10:07.027Z,100410.91
2022-08-25T12:12:15.597Z,100405.38
2022-08-25T12:14:20.254Z,100411.03
2022-08-25T12:16:24.951Z,100408.42
2022-08-25T12:18:30.024Z,100410.03
2022-08-25T12:20:34.642Z,100411.23
2022-08-25T12:22:39.729Z,100406.92
2022-08-25T12:24:49.526Z,100406.41
2022-08-25T12:26:54.345Z,100407.31
2022-08-25T12:28:59.575Z,100407.73
2022-08-25T12:31:11.265Z,100408.36
2022-08-25T12:33:15.888Z,100409.3
2022-08-25T12:35:21.862Z,100408.02
2022-08-25T12:37:28.560Z,100405.75
2022-08-25T12:39:33.122Z,100404.45
2022-08-25T12:41:39.089Z,100399.71
2022-08-25T12:43:44.524Z,100402.37
2022-08-25T12:45:49.372Z,100397.84
2022-08-25T12:47:57.009Z,100396.48
2022-08-25T12:50:01.867Z,100387.95
2022-08-25T12:52:07.211Z,100388.86
2022-08-25T12:54:11.728Z,100385.33
2022-08-25T12:56:26.070Z,100382.98
2022-08-25T12:59:00.039Z,100382.59
2022-08-25T13:01:08.762Z,100379.66
2022-08-25T13:05:41.266Z,100377.74
2022-08-25T13:07:46.012Z,100374.06
2022-08-25T13:09:51.448Z,100374.42
2022-08-25T13:11:57.610Z,100372.05
2022-08-25T13:14:02.338Z,100371.34
2022-08-25T13:16:07.156Z,100367.14
2022-08-25T13:18:12.663Z,100366.88
2022-08-25T13:20:17.435Z,100364.59
2022-08-25T13:22:23.801Z,100366.27
2022-08-25T13:24:28.413Z,100356.17
2022-08-25T13:26:34.466Z,100359.38
2022-08-25T13:28:42.047Z,100357.25
2022-08-25T13:30:54.310Z,100356.72
2022-08-25T13:32:59.552Z,100361.41
2022-08-25T13:35:15.179Z,100362.34
2022-08-25T13:37:24.067Z,100365.48
2022-08-25T13:39:58.661Z,100357.47
2022-08-25T13:42:08.052Z,100360.02
2022-08-25T13:44:15.142Z,100355.64
2022-08-25T13:46:21.397Z,100357.41
2022-08-25T13:48:27.301Z,100346.73
2022-08-25T13:50:31.944Z,100347.92
2022-08-25T13:52:37.299Z,100343.17
2022-08-25T13:54:46.877Z,100346.23
2022-08-25T13:56:53.717Z,100344.81
2022-08-25T13:58:59.394Z,100348.55
2022-08-25T14:01:46.018Z,100350.11
2022-08-25T14:03:54.312Z,100347.31
2022-08-25T14:06:04.811Z,100344.69
2022-08-25T14:08:25.708Z,100339.99
2022-08-25T14:10:32.099Z,100334.36
2022-08-25T14:12:36.712Z,100332.86
2022-08-25T14:14:43.079Z,100330.25
2022-08-25T14:16:47.979Z,100326.01
2022-08-25T14:18:53.144Z,100323.97
2022-08-25T14:21:01.982Z,100329.09
2022-08-25T14:23:11.250Z,100327.86
2022-08-25T14:25:19.529Z,100325.07
2022-08-25T14:27:23.998Z,100326.78
2022-08-25T14:29:30.427Z,100326.36
2022-08-25T14:31:45.240Z,100322.33
2022-08-25T14:33:51.146Z,100320.94
2022-08-25T14:35:56.067Z,100319.19
2022-08-25T14:38:00.649Z,100319.11
2022-08-25T14:40:06.558Z,100315.44
2022-08-25T14:42:13.174Z,100314.95
2022-08-25T14:44:19.904Z,100304.27
2022-08-25T14:46:24.556Z,100304.8
2022-08-25T14:48:29.276Z,100299.66
2022-08-25T14:50:34.242Z,100297.16
2022-08-25T14:52:39.909Z,100293.55
2022-08-25T14:54:47.084Z,100293.03
2022-08-25T14:56:51.649Z,100289.54
2022-08-25T14:58:56.631Z,100290.22
2022-08-25T15:01:04.445Z,100292.36
2022-08-25T15:03:11.587Z,100290.01
2022-08-25T15:05:16.286Z,100287.55
2022-08-25T15:07:24.790Z,100283.95
2022-08-25T15:09:34.845Z,100282.7
2022-08-25T15:11:42.665Z,100278.42
2022-08-25T15:13:50.781Z,100279.73
2022-08-25T15:15:55.487Z,100279.27
2022-08-25T15:18:04.113Z,100281.22
2022-08-25T15:20:12.296Z,100276.42
2022-08-25T15:22:19.057Z,100278.58
2022-08-25T15:24:23.934Z,100278.74
2022-08-25T15:26:29.790Z,100271.87
2022-08-25T15:28:39.415Z,100273
2022-08-25T15:30:46.818Z,100274.52
2022-08-25T15:32:51.781Z,100272.09
